Time;durP1;ratioP1;P1;durP2;ratioP2;P2;SDS_P1;SDS_P2;PMS_P1;PMS_P2;Temp;Humidity;BMP_temperature;BMP_pressure;BME280_temperature;BME280_humidity;BME280_pressure;Samples;Min_cycle;Max_cycle;Signal;HPM_P1;HPM_P2
2024/03/15 06:00:29;;;;;;;;;;;;;;;;;;5954288;23;19998;-53
2024/03/15 06:02:55;;;;;;;;;;;;;;;;;;4972414;28;19989;-57
2024/03/15 06:05:22;;;;;;;;;;;;;;;;;;4982375;28;20386;-51
2024/03/15 06:07:48;;;;;;;;;;;;;;;;;;4992610;28;19922;-49
2024/03/15 06:10:14;;;;;;;;;;;;;;;;;;4992462;28;20272;-52
2024/03/15 06:12:39;;;;;;;;;;;;;;;;;;4991397;28;19959;-50
2024/03/15 06:15:07;;;;;;;;;;;;;;;;;;4989146;28;19918;-49
2024/03/15 06:17:33;;;;;;;;;;;;;;;;;;4992339;28;20339;-50
2024/03/15 06:19:59;;;;;;;;;;;;;;;;;;4992416;28;19952;-52
2024/03/15 06:22:25;;;;;;;;;;;;;;;;;;4992628;28;19913;-51
2024/03/15 06:24:58;;;;;;;;;;;;;;;;;;4991741;28;19914;-51
2024/03/15 06:27:25;;;;;;;;;;;;;;;;;;4992520;28;19910;-49
2024/03/15 06:29:52;;;;;;;;;;;;;;;;;;4992316;28;19960;-51
2024/03/15 06:32:25;;;;;;;;;;;;;;;;;;4992314;28;19910;-47
2024/03/15 06:34:51;;;;;;;;;;;;;;;;;;4989789;28;20253;-50
2024/03/15 06:37:19;;;;;;;;;;;;;;;;;;4992363;28;20032;-49
2024/03/15 06:42:24;;;;;;;;;;;;;;;;;;4992255;28;19914;-51
2024/03/15 06:45:09;;;;;;;;;;;;;;;;;;4991375;28;19918;-52
2024/03/15 06:47:38;;;;;;;;;;;;;;;;;;4992395;28;20067;-51
2024/03/15 06:52:39;;;;;;;;;;;;;;;;;;4992244;28;20323;-50
2024/03/15 06:55:05;;;;;;;;;;;;;;;;;;4991053;28;20057;-51
2024/03/15 06:57:32;;;;;;;;;;;;;;;;;;4991361;28;20382;-47
2024/03/15 06:59:58;;;;;;;;;;;;;;;;;;4992142;28;19909;-51
2024/03/15 07:02:24;;;;;;;;;;;;;;;;;;4991196;28;19918;-49
2024/03/15 07:04:50;;;;;;;;;;;;;;;;;;4990964;28;19914;-51
2024/03/15 07:07:16;;;;;;;;;;;;;;;;;;4991855;28;20009;-50
2024/03/15 07:09:42;;;;;;;;;;;;;;;;;;4978399;28;19993;-47
2024/03/15 07:12:08;;;;;;;;;;;;;;;;;;4974849;28;19946;-47
2024/03/15 07:14:34;;;;;;;;;;;;;;;;;;4972530;28;20327;-50
2024/03/15 07:17:00;;;;;;;;;;;;;;;;;;4972385;28;19914;-49
2024/03/15 07:19:26;;;;;;;;;;;;;;;;;;4982057;28;19914;-47
2024/03/15 07:21:51;;;;;;;;;;;;;;;;;;4988681;28;19930;-46
2024/03/15 07:24:17;;;;;;;;;;;;;;;;;;4991694;28;19910;-47
2024/03/15 07:26:43;;;;;;;;;;;;;;;;;;4988968;28;19910;-46
2024/03/15 07:29:09;;;;;;;;;;;;;;;;;;4972255;28;19918;-48
2024/03/15 07:31:35;;;;;;;;;;;;;;;;;;4977132;28;19960;-47
2024/03/15 07:34:01;;;;;;;;;;;;;;;;;;4991695;28;20383;-46
2024/03/15 07:36:27;;;;;;;;;;;;;;;;;;4991367;28;19917;-51
2024/03/15 07:38:53;;;;;;;;;;;;;;;;;;4976245;28;19922;-49
2024/03/15 07:41:21;;;;;;;;;;;;;;;;;;4971490;28;19930;-49
2024/03/15 07:43:47;;;;;;;;;;;;;;;;;;4975165;28;20304;-51
2024/03/15 07:46:13;;;;;;;;;;;;;;;;;;4975859;28;19914;-50
2024/03/15 07:48:41;;;;;;;;;;;;;;;;;;4975634;28;20016;-47
2024/03/15 07:51:07;;;;;;;;;;;;;;;;;;4976317;28;20396;-46
2024/03/15 07:53:33;;;;;;;;;;;;;;;;;;4983503;28;19918;-48
2024/03/15 07:56:03;;;;;;;;;;;;;;;;;;4975173;28;20339;-46
2024/03/15 07:58:29;;;;;;;;;;;;;;;;;;4975007;28;19949;-46
2024/03/15 08:00:56;;;;;;;;;;;;;;;;;;4975499;28;20004;-46
2024/03/15 08:03:23;;;;;;;;;;;;;;;;;;4979213;28;19925;-47
2024/03/15 08:05:49;;;;;;;;;;;;;;;;;;4974726;28;19922;-49
2024/03/15 08:08:16;;;;;;;;;;;;;;;;;;4973910;28;19918;-49
2024/03/15 08:10:41;;;;;;;;;;;;;;;;;;4974368;28;19957;-51
2024/03/15 08:13:07;;;;;;;;;;;;;;;;;;4987194;28;19953;-50
2024/03/15 08:15:33;;;;;;;;;;;;;;;;;;4987402;28;20399;-50
2024/03/15 08:17:59;;;;;;;;;;;;;;;;;;4995213;28;19910;-50
2024/03/15 08:20:25;;;;;;;;;;;;;;;;;;4974012;28;19989;-48
2024/03/15 08:22:52;;;;;;;;;;;;;;;;;;4975431;28;19910;-49
2024/03/15 08:25:17;;;;;;;;;;;;;;;;;;4975548;28;19921;-47
2024/03/15 08:27:44;;;;;;;;;;;;;;;;;;4993715;28;19918;-48
2024/03/15 08:30:13;;;;;;;;;;;;;;;;;;4987184;28;19914;-51
2024/03/15 08:32:38;;;;;;;;;;;;;;;;;;4975820;28;19937;-48
2024/03/15 08:35:04;;;;;;;;;;;;;;;;;;4984261;28;19914;-49
2024/03/15 08:37:31;;;;;;;;;;;;;;;;;;4994700;28;20261;-50
2024/03/15 08:39:57;;;;;;;;;;;;;;;;;;4982575;28;20004;-50
2024/03/15 08:42:22;;;;;;;;;;;;;;;;;;4975316;28;20396;-49
2024/03/15 08:44:48;;;;;;;;;;;;;;;;;;4987768;28;19914;-51
2024/03/15 08:47:15;;;;;;;;;;;;;;;;;;4994301;28;19909;-48
2024/03/15 08:49:41;;;;;;;;;;;;;;;;;;4982718;28;19918;-47
2024/03/15 08:52:07;;;;;;;;;;;;;;;;;;4970864;28;19914;-47
2024/03/15 08:54:33;;;;;;;;;;;;;;;;;;4974580;28;20383;-48
2024/03/15 08:56:59;;;;;;;;;;;;;;;;;;4977684;28;19918;-50
2024/03/15 08:59:25;;;;;;;;;;;;;;;;;;4972782;28;20579;-49
2024/03/15 09:01:53;;;;;;;;;;;;;;;;;;4971780;28;20175;-47
2024/03/15 09:04:20;;;;;;;;;;;;;;;;;;4972448;28;19933;-48
2024/03/15 09:06:47;;;;;;;;;;;;;;;;;;4974266;28;20335;-51
2024/03/15 09:09:14;;;;;;;;;;;;;;;;;;4974665;28;20004;-49
2024/03/15 09:11:41;;;;;;;;;;;;;;;;;;4974536;28;19964;-50
2024/03/15 09:14:08;;;;;;;;;;;;;;;;;;4974120;28;19914;-50
2024/03/15 09:16:37;;;;;;;;;;;;;;;;;;4973139;28;19917;-50
2024/03/15 09:19:03;;;;;;;;;;;;;;;;;;4972528;28;19914;-49
2024/03/15 09:21:32;;;;;;;;;;;;;;;;;;4973247;28;20332;-50
2024/03/15 09:24:00;;;;;;;;;;;;;;;;;;4973267;28;19918;-49
2024/03/15 09:26:27;;;;;;;;;;;;;;;;;;4974057;28;20000;-51
2024/03/15 09:28:55;;;;;;;;;;;;;;;;;;4973853;28;19918;-52
2024/03/15 09:31:24;;;;;;;;;;;;;;;;;;4973686;28;20360;-48
2024/03/15 09:33:50;;;;;;;;;;;;;;;;;;4973718;28;19917;-51
2024/03/15 09:36:21;;;;;;;;;;;;;;;;;;4973220;28;19910;-51
2024/03/15 09:38:47;;;;;;;;;;;;;;;;;;4972955;28;19943;-51
2024/03/15 09:41:12;;;;;;;;;;;;;;;;;;4972340;28;19937;-48
2024/03/15 09:43:39;;;;;;;;;;;;;;;;;;4973299;28;20376;-50
2024/03/15 09:46:06;;;;;;;;;;;;;;;;;;4973234;28;19918;-51
2024/03/15 09:48:32;;;;;;;;;;;;;;;;;;4980492;28;19918;-51
2024/03/15 09:51:00;;;;;;;;;;;;;;;;;;4970632;28;19921;-49
2024/03/15 09:53:26;;;;;;;;;;;;;;;;;;4972543;28;19914;-52
2024/03/15 09:55:52;;;;;;;;;;;;;;;;;;4975164;28;19914;-50
2024/03/15 09:58:18;;;;;;;;;;;;;;;;;;4969451;28;19925;-49
2024/03/15 10:00:44;;;;;;;;;;;;;;;;;;4984742;28;20371;-47
2024/03/15 10:03:10;;;;;;;;;;;;;;;;;;4967583;28;19949;-47
2024/03/15 10:05:36;;;;;;;;;;;;;;;;;;4970210;28;19914;-48
2024/03/15 10:08:02;;;;;;;;;;;;;;;;;;4975631;28;20103;-46
2024/03/15 10:10:29;;;;;;;;;;;;;;;;;;4981461;28;20012;-46
2024/03/15 10:12:54;;;;;;;;;;;;;;;;;;4972290;28;20174;-46
2024/03/15 10:15:20;;;;;;;;;;;;;;;;;;4979814;28;20004;-47
2024/03/15 10:17:46;;;;;;;;;;;;;;;;;;4971790;28;19960;-47
2024/03/15 10:20:13;;;;;;;;;;;;;;;;;;4971040;28;20372;-46
2024/03/15 10:22:40;;;;;;;;;;;;;;;;;;4972371;28;20443;-46
2024/03/15 10:25:06;;;;;;;;;;;;;;;;;;4972324;28;19953;-46
2024/03/15 10:27:32;;;;;;;;;;;;;;;;;;4971588;28;19989;-46
2024/03/15 10:29:58;;;;;;;;;;;;;;;;;;4971613;28;20408;-46
2024/03/15 10:32:25;;;;;;;;;;;;;;;;;;4982346;28;20004;-46
2024/03/15 10:34:51;;;;;;;;;;;;;;;;;;4976368;28;20288;-46
2024/03/15 10:37:16;;;;;;;;;;;;;;;;;;4985395;28;19984;-47
2024/03/15 10:39:42;;;;;;;;;;;;;;;;;;4981319;28;19921;-47
2024/03/15 10:42:08;;;;;;;;;;;;;;;;;;4975447;28;19915;-48
2024/03/15 10:44:34;;;;;;;;;;;;;;;;;;4985200;28;19926;-47
2024/03/15 10:47:00;;;;;;;;;;;;;;;;;;4968913;28;20399;-47
2024/03/15 10:49:26;;;;;;;;;;;;;;;;;;4972847;28;20454;-46
2024/03/15 10:51:52;;;;;;;;;;;;;;;;;;4970193;28;20014;-47
2024/03/15 10:54:19;;;;;;;;;;;;;;;;;;4979183;28;20388;-46
2024/03/15 10:56:44;;;;;;;;;;;;;;;;;;4970972;28;19914;-46
2024/03/15 10:59:10;;;;;;;;;;;;;;;;;;4977730;28;20449;-47
2024/03/15 11:01:37;;;;;;;;;;;;;;;;;;4981861;28;19925;-46
2024/03/15 11:04:03;;;;;;;;;;;;;;;;;;4968162;28;19925;-47
2024/03/15 11:06:29;;;;;;;;;;;;;;;;;;4983142;28;19914;-47
2024/03/15 11:08:55;;;;;;;;;;;;;;;;;;4980579;28;19940;-48
2024/03/15 11:11:22;;;;;;;;;;;;;;;;;;4971875;28;20029;-48
2024/03/15 11:13:50;;;;;;;;;;;;;;;;;;4974372;28;19914;-48
2024/03/15 11:16:16;;;;;;;;;;;;;;;;;;4984963;28;20300;-46
2024/03/15 11:18:42;;;;;;;;;;;;;;;;;;4974684;28;20473;-46
2024/03/15 11:21:09;;;;;;;;;;;;;;;;;;4974330;28;19950;-49
2024/03/15 11:23:35;;;;;;;;;;;;;;;;;;4978291;28;19914;-46
2024/03/15 11:26:01;;;;;;;;;;;;;;;;;;4975118;28;19921;-49
2024/03/15 11:28:27;;;;;;;;;;;;;;;;;;4975992;28;19914;-47
2024/03/15 11:30:53;;;;;;;;;;;;;;;;;;4975632;28;19945;-49
2024/03/15 11:33:19;;;;;;;;;;;;;;;;;;4985105;28;19914;-49
2024/03/15 11:35:45;;;;;;;;;;;;;;;;;;4982084;28;19914;-47
2024/03/15 11:38:11;;;;;;;;;;;;;;;;;;4982764;28;20276;-47
2024/03/15 11:40:36;;;;;;;;;;;;;;;;;;4983380;28;19914;-47
2024/03/15 11:43:02;;;;;;;;;;;;;;;;;;4960263;28;19933;-46
2024/03/15 11:45:28;;;;;;;;;;;;;;;;;;4981614;28;19921;-51
2024/03/15 11:47:54;;;;;;;;;;;;;;;;;;4978045;28;19952;-47
2024/03/15 11:50:20;;;;;;;;;;;;;;;;;;4974509;28;19914;-46
2024/03/15 11:52:46;;;;;;;;;;;;;;;;;;4987628;28;20462;-47
2024/03/15 11:55:17;;;;;;;;;;;;;;;;;;4973782;28;19930;-47
2024/03/15 11:57:43;;;;;;;;;;;;;;;;;;4974490;28;20470;-47
2024/03/15 12:00:09;;;;;;;;;;;;;;;;;;4986489;28;19953;-47
2024/03/15 12:02:35;;;;;;;;;;;;;;;;;;4989101;28;19921;-50
2024/03/15 12:05:01;;;;;;;;;;;;;;;;;;4974694;28;19964;-47
2024/03/15 12:07:27;;;;;;;;;;;;;;;;;;4974845;28;19921;-47
2024/03/15 12:09:53;;;;;;;;;;;;;;;;;;4980750;28;19929;-47
2024/03/15 12:12:22;;;;;;;;;;;;;;;;;;4977919;28;19968;-47
2024/03/15 12:14:49;;;;;;;;;;;;;;;;;;4973611;28;19996;-48
2024/03/15 12:17:15;;;;;;;;;;;;;;;;;;4977932;28;19984;-47
2024/03/15 12:19:40;;;;;;;;;;;;;;;;;;4979554;28;19965;-47
2024/03/15 12:22:07;;;;;;;;;;;;;;;;;;4974754;28;19976;-48
2024/03/15 12:24:34;;;;;;;;;;;;;;;;;;4973503;28;19918;-51
2024/03/15 12:27:00;;;;;;;;;;;;;;;;;;4983972;28;19914;-49
2024/03/15 12:29:25;;;;;;;;;;;;;;;;;;4968686;28;19929;-51
2024/03/15 12:31:51;;;;;;;;;;;;;;;;;;4977097;28;20538;-49
2024/03/15 12:34:17;;;;;;;;;;;;;;;;;;4987229;28;19920;-47
2024/03/15 12:36:43;;;;;;;;;;;;;;;;;;4970591;28;20311;-49
2024/03/15 12:39:09;;;;;;;;;;;;;;;;;;4971948;28;19919;-48
2024/03/15 12:41:36;;;;;;;;;;;;;;;;;;4989998;28;20398;-50
2024/03/15 12:44:02;;;;;;;;;;;;;;;;;;4970930;28;19989;-51
2024/03/15 12:46:28;;;;;;;;;;;;;;;;;;4989791;28;20360;-51
2024/03/15 12:48:55;;;;;;;;;;;;;;;;;;4970016;28;19983;-47
2024/03/15 12:51:20;;;;;;;;;;;;;;;;;;4969849;28;19969;-47
2024/03/15 12:53:46;;;;;;;;;;;;;;;;;;4971913;28;19914;-48
2024/03/15 12:56:12;;;;;;;;;;;;;;;;;;4973495;28;20376;-48
2024/03/15 12:58:38;;;;;;;;;;;;;;;;;;4974651;28;19946;-47
2024/03/15 13:01:04;;;;;;;;;;;;;;;;;;4973678;28;19969;-47
2024/03/15 13:03:30;;;;;;;;;;;;;;;;;;4981177;28;20025;-47
2024/03/15 13:05:56;;;;;;;;;;;;;;;;;;4974085;28;20013;-47
2024/03/15 13:08:22;;;;;;;;;;;;;;;;;;4973179;28;19926;-47
2024/03/15 13:10:48;;;;;;;;;;;;;;;;;;4973890;28;19917;-48
2024/03/15 13:13:14;;;;;;;;;;;;;;;;;;4973567;28;19914;-48
2024/03/15 13:15:46;;;;;;;;;;;;;;;;;;4973754;28;19910;-51
2024/03/15 13:18:13;;;;;;;;;;;;;;;;;;4973231;28;19910;-47
2024/03/15 13:20:41;;;;;;;;;;;;;;;;;;4972428;28;19914;-49
2024/03/15 13:23:07;;;;;;;;;;;;;;;;;;4985795;28;19921;-48
2024/03/15 13:25:35;;;;;;;;;;;;;;;;;;4971760;28;20300;-50
2024/03/15 13:28:01;;;;;;;;;;;;;;;;;;4971857;28;20005;-49
2024/03/15 13:30:27;;;;;;;;;;;;;;;;;;4972739;28;19921;-49
2024/03/15 13:32:56;;;;;;;;;;;;;;;;;;4972848;28;19918;-49
2024/03/15 13:35:22;;;;;;;;;;;;;;;;;;4975188;28;19921;-48
2024/03/15 13:37:48;;;;;;;;;;;;;;;;;;4967412;28;19926;-49
2024/03/15 13:40:15;;;;;;;;;;;;;;;;;;4976924;28;19936;-49
2024/03/15 13:42:41;;;;;;;;;;;;;;;;;;4974297;28;19921;-50
2024/03/15 13:45:12;;;;;;;;;;;;;;;;;;4972145;28;19918;-49
2024/03/15 13:50:23;;;;;;;;;;;;;;;;;;4973591;28;20009;-51
2024/03/15 13:52:52;;;;;;;;;;;;;;;;;;4973115;28;20352;-53
2024/03/15 13:55:18;;;;;;;;;;;;;;;;;;4972465;28;19918;-50
2024/03/15 13:57:47;;;;;;;;;;;;;;;;;;4973779;28;20380;-49
2024/03/15 14:02:57;;;;;;;;;;;;;;;;;;4954419;29;19925;-52
2024/03/15 14:05:23;;;;;;;;;;;;;;;;;;4954296;29;19914;-49
2024/03/15 14:07:49;;;;;;;;;;;;;;;;;;4953821;29;20344;-49
2024/03/15 14:10:18;;;;;;;;;;;;;;;;;;4953333;29;19954;-49
2024/03/15 14:12:44;;;;;;;;;;;;;;;;;;4953343;29;19997;-51
2024/03/15 14:15:11;;;;;;;;;;;;;;;;;;4953127;29;20384;-49
2024/03/15 14:17:37;;;;;;;;;;;;;;;;;;4953145;29;19914;-49
2024/03/15 14:20:04;;;;;;;;;;;;;;;;;;4953086;29;19985;-49
2024/03/15 14:22:31;;;;;;;;;;;;;;;;;;4953258;29;19921;-48
2024/03/15 14:24:57;;;;;;;;;;;;;;;;;;4953147;29;19911;-49
2024/03/15 14:27:23;;;;;;;;;;;;;;;;;;4953012;29;19922;-49
2024/03/15 14:29:48;;;;;;;;;;;;;;;;;;4952901;29;19956;-50
2024/03/15 14:32:14;;;;;;;;;;;;;;;;;;4953086;29;19938;-49
2024/03/15 14:34:40;;;;;;;;;;;;;;;;;;4952853;29;19910;-48
2024/03/15 14:37:06;;;;;;;;;;;;;;;;;;4951673;29;20346;-49
2024/03/15 14:39:32;;;;;;;;;;;;;;;;;;4953268;29;19965;-48
2024/03/15 14:41:58;;;;;;;;;;;;;;;;;;4953084;29;19917;-50
2024/03/15 14:44:24;;;;;;;;;;;;;;;;;;4952735;29;20017;-49
2024/03/15 14:46:54;;;;;;;;;;;;;;;;;;4952867;29;19918;-49
2024/03/15 14:49:21;;;;;;;;;;;;;;;;;;4952381;28;19914;-50
2024/03/15 14:51:47;;;;;;;;;;;;;;;;;;4951657;29;19921;-49
2024/03/15 14:54:13;;;;;;;;;;;;;;;;;;4952524;29;20344;-49
2024/03/15 14:56:39;;;;;;;;;;;;;;;;;;4952827;29;19946;-49
2024/03/15 14:59:05;;;;;;;;;;;;;;;;;;4952521;29;20364;-49
2024/03/15 15:01:31;;;;;;;;;;;;;;;;;;4952959;29;19919;-48
2024/03/15 15:03:58;;;;;;;;;;;;;;;;;;4952912;29;19937;-49
2024/03/15 15:06:24;;;;;;;;;;;;;;;;;;4952537;29;19910;-49
2024/03/15 15:08:50;;;;;;;;;;;;;;;;;;4952464;29;19961;-48
2024/03/15 15:11:16;;;;;;;;;;;;;;;;;;4952466;29;20289;-50
2024/03/15 15:13:42;;;;;;;;;;;;;;;;;;4952692;29;19906;-48
2024/03/15 15:16:08;;;;;;;;;;;;;;;;;;4952401;29;19911;-48
2024/03/15 15:18:34;;;;;;;;;;;;;;;;;;4952213;29;19994;-49
2024/03/15 15:21:00;;;;;;;;;;;;;;;;;;4952847;29;19918;-52
2024/03/15 15:23:26;;;;;;;;;;;;;;;;;;4952437;29;19906;-50
2024/03/15 15:25:52;;;;;;;;;;;;;;;;;;4952286;29;20427;-48
2024/03/15 15:28:18;;;;;;;;;;;;;;;;;;4952304;29;19957;-47
2024/03/15 15:30:44;;;;;;;;;;;;;;;;;;4952319;29;20376;-47
2024/03/15 15:33:10;;;;;;;;;;;;;;;;;;4952440;29;19910;-47
2024/03/15 15:35:36;;;;;;;;;;;;;;;;;;4952232;29;20384;-49
2024/03/15 15:38:03;;;;;;;;;;;;;;;;;;4952554;29;19918;-46
2024/03/15 15:40:29;;;;;;;;;;;;;;;;;;4952553;29;19911;-46
2024/03/15 15:42:55;;;;;;;;;;;;;;;;;;4952359;29;20377;-49
2024/03/15 15:45:26;;;;;;;;;;;;;;;;;;4952172;29;19914;-47
2024/03/15 15:47:52;;;;;;;;;;;;;;;;;;4952242;29;19933;-48
2024/03/15 15:50:18;;;;;;;;;;;;;;;;;;4952103;29;19911;-48
2024/03/15 15:52:44;;;;;;;;;;;;;;;;;;4952268;29;19910;-48
2024/03/15 15:55:11;;;;;;;;;;;;;;;;;;4951987;29;20376;-49
2024/03/15 15:57:37;;;;;;;;;;;;;;;;;;4952208;29;19911;-47
2024/03/15 16:00:04;;;;;;;;;;;;;;;;;;4952331;29;19977;-48
2024/03/15 16:02:29;;;;;;;;;;;;;;;;;;4953885;28;19919;-48
2024/03/15 16:04:55;;;;;;;;;;;;;;;;;;4955559;29;19922;-49
2024/03/15 16:07:22;;;;;;;;;;;;;;;;;;4955337;29;20389;-48
2024/03/15 16:09:48;;;;;;;;;;;;;;;;;;4955619;29;20320;-48
2024/03/15 16:12:14;;;;;;;;;;;;;;;;;;4955674;29;19918;-48
2024/03/15 16:14:40;;;;;;;;;;;;;;;;;;4955532;29;19910;-48
2024/03/15 16:17:06;;;;;;;;;;;;;;;;;;4955294;29;19910;-52
2024/03/15 16:19:32;;;;;;;;;;;;;;;;;;4954167;29;19997;-48
2024/03/15 16:21:58;;;;;;;;;;;;;;;;;;4955091;29;20046;-50
2024/03/15 16:24:25;;;;;;;;;;;;;;;;;;4955395;29;19926;-48
2024/03/15 16:26:51;;;;;;;;;;;;;;;;;;4955153;29;19917;-54
2024/03/15 16:29:16;;;;;;;;;;;;;;;;;;4955237;29;19915;-49
2024/03/15 16:31:42;;;;;;;;;;;;;;;;;;4955154;29;20012;-50
2024/03/15 16:34:09;;;;;;;;;;;;;;;;;;4955139;29;19911;-49
2024/03/15 16:36:35;;;;;;;;;;;;;;;;;;4955275;29;19910;-48
2024/03/15 16:39:01;;;;;;;;;;;;;;;;;;4955061;29;20415;-49
2024/03/15 16:41:27;;;;;;;;;;;;;;;;;;4954948;29;19921;-48
2024/03/15 16:43:53;;;;;;;;;;;;;;;;;;4955010;29;19915;-48
2024/03/15 16:46:19;;;;;;;;;;;;;;;;;;4954766;29;20296;-49
2024/03/15 16:48:45;;;;;;;;;;;;;;;;;;4954794;29;20291;-49
2024/03/15 16:51:11;;;;;;;;;;;;;;;;;;4954923;29;19914;-48
2024/03/15 16:53:38;;;;;;;;;;;;;;;;;;4955252;29;19931;-48
2024/03/15 16:56:04;;;;;;;;;;;;;;;;;;4954741;29;19918;-49
2024/03/15 16:58:31;;;;;;;;;;;;;;;;;;4954672;29;19907;-53
2024/03/15 17:00:57;;;;;;;;;;;;;;;;;;4954510;29;19925;-52
2024/03/15 17:03:23;;;;;;;;;;;;;;;;;;4954547;29;19918;-52
2024/03/15 17:05:49;;;;;;;;;;;;;;;;;;4954541;29;20005;-49
2024/03/15 17:08:17;;;;;;;;;;;;;;;;;;4954376;29;20170;-51
2024/03/15 17:10:43;;;;;;;;;;;;;;;;;;4954515;29;19965;-49
2024/03/15 17:13:09;;;;;;;;;;;;;;;;;;4954651;28;20318;-49
2024/03/15 17:15:35;;;;;;;;;;;;;;;;;;4954707;29;19937;-49
2024/03/15 17:18:01;;;;;;;;;;;;;;;;;;4954282;29;20149;-48
2024/03/15 17:20:27;;;;;;;;;;;;;;;;;;4954342;29;19910;-49
2024/03/15 17:22:53;;;;;;;;;;;;;;;;;;4954554;29;20368;-48
2024/03/15 17:25:19;;;;;;;;;;;;;;;;;;4954314;29;19945;-48
2024/03/15 17:27:45;;;;;;;;;;;;;;;;;;4953957;29;19910;-49
2024/03/15 17:30:11;;;;;;;;;;;;;;;;;;4954127;29;20364;-49
2024/03/15 17:32:37;;;;;;;;;;;;;;;;;;4954116;29;19910;-49
2024/03/15 17:35:03;;;;;;;;;;;;;;;;;;4954400;29;19911;-49
2024/03/15 17:37:29;;;;;;;;;;;;;;;;;;4953699;29;19918;-49
2024/03/15 17:39:55;;;;;;;;;;;;;;;;;;4954040;29;19910;-49
2024/03/15 17:42:21;;;;;;;;;;;;;;;;;;4953744;29;19917;-48
2024/03/15 17:44:47;;;;;;;;;;;;;;;;;;4954245;29;19965;-47
2024/03/15 17:47:14;;;;;;;;;;;;;;;;;;4953369;29;19961;-52
2024/03/15 17:49:40;;;;;;;;;;;;;;;;;;4954244;29;19914;-49
2024/03/15 17:52:06;;;;;;;;;;;;;;;;;;4953584;29;19910;-49
2024/03/15 17:54:33;;;;;;;;;;;;;;;;;;4953604;29;19973;-49
2024/03/15 17:56:59;;;;;;;;;;;;;;;;;;4953315;29;19910;-50
2024/03/15 17:59:25;;;;;;;;;;;;;;;;;;4954010;29;19933;-55
2024/03/15 18:01:50;;;;;;;;;;;;;;;;;;4953254;29;19977;-52
2024/03/15 18:04:16;;;;;;;;;;;;;;;;;;4953480;29;20552;-50
2024/03/15 18:06:42;;;;;;;;;;;;;;;;;;4953286;29;20129;-50
2024/03/15 18:09:08;;;;;;;;;;;;;;;;;;4953582;29;20023;-49
2024/03/15 18:11:35;;;;;;;;;;;;;;;;;;4951396;29;20151;-50
2024/03/15 18:14:02;;;;;;;;;;;;;;;;;;4953429;29;19914;-44
2024/03/15 18:16:28;;;;;;;;;;;;;;;;;;4953138;29;19917;-45
2024/03/15 18:18:54;;;;;;;;;;;;;;;;;;4953196;29;20008;-44
2024/03/15 18:21:20;;;;;;;;;;;;;;;;;;4951893;29;19977;-44
2024/03/15 18:23:47;;;;;;;;;;;;;;;;;;4953240;29;20460;-44
2024/03/15 18:26:14;;;;;;;;;;;;;;;;;;4952635;28;19910;-44
2024/03/15 18:28:40;;;;;;;;;;;;;;;;;;4953288;29;20395;-44
2024/03/15 18:31:09;;;;;;;;;;;;;;;;;;4953060;29;20014;-45
2024/03/15 18:33:35;;;;;;;;;;;;;;;;;;4952763;29;19933;-44
2024/03/15 18:36:03;;;;;;;;;;;;;;;;;;4953116;29;19911;-44
2024/03/15 18:38:29;;;;;;;;;;;;;;;;;;4952696;29;19918;-45
2024/03/15 18:40:55;;;;;;;;;;;;;;;;;;4952923;29;19911;-45
2024/03/15 18:43:21;;;;;;;;;;;;;;;;;;4952514;29;20372;-45
2024/03/15 18:45:47;;;;;;;;;;;;;;;;;;4952905;29;20008;-44
2024/03/15 18:48:13;;;;;;;;;;;;;;;;;;4952782;29;19974;-44
2024/03/15 18:50:39;;;;;;;;;;;;;;;;;;4953126;29;20373;-46
2024/03/15 18:53:05;;;;;;;;;;;;;;;;;;4952758;29;19917;-43
2024/03/15 18:55:31;;;;;;;;;;;;;;;;;;4952657;29;19942;-45
2024/03/15 18:58:00;;;;;;;;;;;;;;;;;;4952333;29;19957;-45
2024/03/15 19:00:28;;;;;;;;;;;;;;;;;;4952624;29;20031;-45
2024/03/15 19:02:57;;;;;;;;;;;;;;;;;;4952678;29;20050;-45
2024/03/15 19:05:24;;;;;;;;;;;;;;;;;;4952716;29;19962;-43
2024/03/15 19:07:50;;;;;;;;;;;;;;;;;;4952324;29;20439;-43
2024/03/15 19:10:16;;;;;;;;;;;;;;;;;;4952536;29;19965;-44
2024/03/15 19:12:42;;;;;;;;;;;;;;;;;;4952715;29;19911;-44
2024/03/15 19:15:08;;;;;;;;;;;;;;;;;;4952679;29;19910;-47
2024/03/15 19:17:34;;;;;;;;;;;;;;;;;;4952318;29;20396;-43
2024/03/15 19:20:00;;;;;;;;;;;;;;;;;;4952502;29;19980;-43
2024/03/15 19:22:26;;;;;;;;;;;;;;;;;;4951011;29;20388;-43
2024/03/15 19:24:52;;;;;;;;;;;;;;;;;;4952617;29;19911;-46
2024/03/15 19:27:20;;;;;;;;;;;;;;;;;;4952178;29;19918;-47
2024/03/15 19:29:47;;;;;;;;;;;;;;;;;;4952501;29;19961;-45
2024/03/15 19:32:12;;;;;;;;;;;;;;;;;;4952541;29;20324;-43
2024/03/15 19:34:38;;;;;;;;;;;;;;;;;;4952473;29;19921;-44
2024/03/15 19:37:04;;;;;;;;;;;;;;;;;;4953444;28;19917;-44
2024/03/15 19:39:30;;;;;;;;;;;;;;;;;;4956121;29;19911;-43
2024/03/15 19:41:56;;;;;;;;;;;;;;;;;;4956244;29;19918;-44
2024/03/15 19:44:22;;;;;;;;;;;;;;;;;;4966935;28;20407;-45
2024/03/15 19:46:48;;;;;;;;;;;;;;;;;;4987015;28;19920;-44
2024/03/15 19:49:14;;;;;;;;;;;;;;;;;;4994738;28;19914;-44
2024/03/15 19:51:41;;;;;;;;;;;;;;;;;;4995151;28;19936;-44
2024/03/15 19:54:06;;;;;;;;;;;;;;;;;;4994375;28;20376;-43
2024/03/15 19:56:32;;;;;;;;;;;;;;;;;;4988772;28;19922;-44
2024/03/15 19:58:58;;;;;;;;;;;;;;;;;;4994370;28;20280;-45
2024/03/15 20:01:24;;;;;;;;;;;;;;;;;;4993590;28;20330;-45
2024/03/15 20:03:50;;;;;;;;;;;;;;;;;;4994608;28;19964;-45
2024/03/15 20:06:17;;;;;;;;;;;;;;;;;;4990924;28;19913;-44
2024/03/15 20:08:43;;;;;;;;;;;;;;;;;;4982078;28;19922;-45
2024/03/15 20:11:11;;;;;;;;;;;;;;;;;;4974551;28;19914;-44
2024/03/15 20:13:37;;;;;;;;;;;;;;;;;;4974052;28;19918;-43
2024/03/15 20:16:03;;;;;;;;;;;;;;;;;;4974424;28;19949;-43
2024/03/15 20:18:29;;;;;;;;;;;;;;;;;;4991490;28;20024;-45
2024/03/15 20:20:55;;;;;;;;;;;;;;;;;;4993520;28;19910;-43
2024/03/15 20:23:21;;;;;;;;;;;;;;;;;;4993226;28;20388;-45
2024/03/15 20:25:47;;;;;;;;;;;;;;;;;;4979134;28;19915;-44
2024/03/15 20:28:14;;;;;;;;;;;;;;;;;;4986302;28;19918;-45
2024/03/15 20:30:40;;;;;;;;;;;;;;;;;;4973832;28;20503;-45
2024/03/15 20:33:06;;;;;;;;;;;;;;;;;;4973707;28;19914;-45
2024/03/15 20:35:32;;;;;;;;;;;;;;;;;;4988098;28;19914;-45
2024/03/15 20:38:00;;;;;;;;;;;;;;;;;;4970988;28;19925;-45
2024/03/15 20:40:26;;;;;;;;;;;;;;;;;;4971148;28;19956;-47
2024/03/15 20:42:53;;;;;;;;;;;;;;;;;;4969172;28;19962;-44
2024/03/15 20:45:19;;;;;;;;;;;;;;;;;;4972016;28;19918;-45
2024/03/15 20:47:45;;;;;;;;;;;;;;;;;;4976890;28;19914;-45
2024/03/15 20:50:10;;;;;;;;;;;;;;;;;;4975697;28;19922;-43
2024/03/15 20:52:36;;;;;;;;;;;;;;;;;;4974828;28;19933;-44
2024/03/15 20:55:03;;;;;;;;;;;;;;;;;;4972000;28;19918;-44
2024/03/15 20:57:30;;;;;;;;;;;;;;;;;;4983133;28;19969;-44
2024/03/15 20:59:56;;;;;;;;;;;;;;;;;;4972438;28;19914;-44
2024/03/15 21:02:22;;;;;;;;;;;;;;;;;;4970947;28;19918;-44
2024/03/15 21:04:48;;;;;;;;;;;;;;;;;;4971991;28;19914;-44
2024/03/15 21:07:15;;;;;;;;;;;;;;;;;;4977251;28;20012;-47
2024/03/15 21:09:41;;;;;;;;;;;;;;;;;;4974465;28;20342;-45
2024/03/15 21:12:10;;;;;;;;;;;;;;;;;;4973585;28;20422;-45
2024/03/15 21:14:36;;;;;;;;;;;;;;;;;;4972869;28;19949;-44
2024/03/15 21:17:05;;;;;;;;;;;;;;;;;;4972028;28;19988;-44
2024/03/15 21:19:31;;;;;;;;;;;;;;;;;;4971347;28;20380;-44
2024/03/15 21:21:57;;;;;;;;;;;;;;;;;;4971038;28;19914;-45
2024/03/15 21:24:23;;;;;;;;;;;;;;;;;;4970945;28;19921;-44
2024/03/15 21:26:49;;;;;;;;;;;;;;;;;;4974293;28;19914;-44
2024/03/15 21:29:16;;;;;;;;;;;;;;;;;;4971443;28;19918;-44
2024/03/15 21:31:42;;;;;;;;;;;;;;;;;;4971449;28;20053;-44
2024/03/15 21:34:08;;;;;;;;;;;;;;;;;;4976183;28;19961;-45
2024/03/15 21:36:34;;;;;;;;;;;;;;;;;;4984301;28;20289;-45
2024/03/15 21:39:04;;;;;;;;;;;;;;;;;;4986581;28;19914;-44
2024/03/15 21:41:31;;;;;;;;;;;;;;;;;;4970304;28;19995;-44
2024/03/15 21:43:57;;;;;;;;;;;;;;;;;;4970658;28;19918;-44
2024/03/15 21:46:31;;;;;;;;;;;;;;;;;;4980868;28;19989;-45
2024/03/15 21:48:59;;;;;;;;;;;;;;;;;;4972225;28;20021;-44
2024/03/15 21:51:25;;;;;;;;;;;;;;;;;;4977053;28;19914;-44
2024/03/15 21:53:51;;;;;;;;;;;;;;;;;;4986561;28;19929;-45
2024/03/15 21:56:20;;;;;;;;;;;;;;;;;;4971737;28;20005;-46
2024/03/15 21:58:46;;;;;;;;;;;;;;;;;;4971821;28;19920;-46
2024/03/15 22:01:12;;;;;;;;;;;;;;;;;;4979535;28;20307;-45
2024/03/15 22:03:38;;;;;;;;;;;;;;;;;;4972927;28;19941;-45
2024/03/15 22:06:05;;;;;;;;;;;;;;;;;;4970880;28;20004;-46
2024/03/15 22:08:33;;;;;;;;;;;;;;;;;;4988339;28;19964;-46
2024/03/15 22:10:59;;;;;;;;;;;;;;;;;;4977352;28;19925;-45
2024/03/15 22:13:26;;;;;;;;;;;;;;;;;;4969269;28;20357;-45
2024/03/15 22:15:52;;;;;;;;;;;;;;;;;;4969719;28;20596;-45
2024/03/15 22:18:18;;;;;;;;;;;;;;;;;;4969300;28;19914;-45
2024/03/15 22:20:44;;;;;;;;;;;;;;;;;;4967575;28;20300;-45
2024/03/15 22:23:10;;;;;;;;;;;;;;;;;;4969695;28;20009;-45
2024/03/15 22:25:36;;;;;;;;;;;;;;;;;;4970956;28;20404;-46
2024/03/15 22:28:02;;;;;;;;;;;;;;;;;;4970083;28;19914;-45
2024/03/15 22:30:29;;;;;;;;;;;;;;;;;;4971496;28;19914;-45
2024/03/15 22:32:55;;;;;;;;;;;;;;;;;;4971464;28;19952;-43
2024/03/15 22:35:21;;;;;;;;;;;;;;;;;;4953044;28;20394;-43
2024/03/15 22:37:47;;;;;;;;;;;;;;;;;;4974258;28;19950;-43
2024/03/15 22:40:17;;;;;;;;;;;;;;;;;;4969699;28;19976;-42
2024/03/15 22:42:44;;;;;;;;;;;;;;;;;;4985688;28;21410;-44
2024/03/15 22:45:10;;;;;;;;;;;;;;;;;;4969502;28;20384;-43
2024/03/15 22:47:36;;;;;;;;;;;;;;;;;;4983378;28;19914;-43
2024/03/15 22:50:04;;;;;;;;;;;;;;;;;;4970088;28;20417;-42